Time;durP1;ratioP1;P1;durP2;ratioP2;P2;SDS_P1;SDS_P2;PMS_P1;PMS_P2;Temp;Humidity;BMP_temperature;BMP_pressure;BME280_temperature;BME280_humidity;BME280_pressure;Samples;Min_cycle;Max_cycle;Signal;HPM_P1;HPM_P2
2023/09/01 00:00:04;;;;;;;0.00;0.00;;;;;;;;;;5093441;28;20040;-81
2023/09/01 00:02:30;;;;;;;0.00;0.00;;;;;;;;;;5093934;28;20043;-82
2023/09/01 00:04:56;;;;;;;0.10;0.00;;;;;;;;;;5075344;28;20483;-81
2023/09/01 00:07:22;;;;;;;0.00;0.00;;;;;;;;;;5092474;28;20078;-81
2023/09/01 00:09:50;;;;;;;0.00;0.00;;;;;;;;;;5093394;28;20040;-81
2023/09/01 00:12:16;;;;;;;0.00;0.00;;;;;;;;;;5093450;28;20079;-82
2023/09/01 00:14:42;;;;;;;0.00;0.00;;;;;;;;;;5091429;28;20105;-81
2023/09/01 00:17:08;;;;;;;0.00;0.00;;;;;;;;;;5093496;28;20048;-82
2023/09/01 00:19:35;;;;;;;0.00;0.00;;;;;;;;;;5092554;28;20050;-81
2023/09/01 00:22:02;;;;;;;0.00;0.00;;;;;;;;;;5093807;28;20424;-82
2023/09/01 00:24:30;;;;;;;0.00;0.00;;;;;;;;;;5092200;28;20082;-81
2023/09/01 00:26:56;;;;;;;0.00;0.00;;;;;;;;;;5093127;28;20040;-81
2023/09/01 00:29:22;;;;;;;0.00;0.00;;;;;;;;;;5092931;28;20044;-81
2023/09/01 00:31:48;;;;;;;0.00;0.00;;;;;;;;;;5091606;28;20044;-81
2023/09/01 00:34:14;;;;;;;0.00;0.00;;;;;;;;;;5093206;28;20044;-81
2023/09/01 00:36:40;;;;;;;0.00;0.00;;;;;;;;;;5093108;28;20445;-81
2023/09/01 00:39:07;;;;;;;0.00;0.00;;;;;;;;;;5091691;28;20050;-82
2023/09/01 00:41:32;;;;;;;0.00;0.00;;;;;;;;;;5091437;28;20039;-81
2023/09/01 00:43:58;;;;;;;0.00;0.00;;;;;;;;;;5093138;28;20376;-81
2023/09/01 00:46:25;;;;;;;0.00;0.00;;;;;;;;;;5091418;28;20047;-81
2023/09/01 00:48:51;;;;;;;0.00;0.00;;;;;;;;;;5091395;28;20479;-81
2023/09/01 00:51:17;;;;;;;0.00;0.00;;;;;;;;;;5092681;28;20104;-82
2023/09/01 00:53:43;;;;;;;0.00;0.00;;;;;;;;;;5093041;28;20391;-82
2023/09/01 00:56:09;;;;;;;0.00;0.00;;;;;;;;;;5091381;28;20043;-81
2023/09/01 00:58:35;;;;;;;0.00;0.00;;;;;;;;;;5091904;28;20059;-81
2023/09/01 01:01:04;;;;;;;0.00;0.00;;;;;;;;;;5091094;28;20491;-81
2023/09/01 01:03:33;;;;;;;0.00;0.00;;;;;;;;;;5092885;28;20044;-81
2023/09/01 01:05:58;;;;;;;0.00;0.00;;;;;;;;;;5091207;28;20127;-81
2023/09/01 01:08:24;;;;;;;0.00;0.00;;;;;;;;;;5092892;28;20079;-81
2023/09/01 01:11:02;;;;;;;0.00;0.00;;;;;;;;;;5090933;28;20052;-81
2023/09/01 01:13:34;;;;;;;0.00;0.00;;;;;;;;;;5091732;28;20051;-82
2023/09/01 01:16:00;;;;;;;0.00;0.00;;;;;;;;;;5090940;28;20508;-81
2023/09/01 01:18:27;;;;;;;0.00;0.00;;;;;;;;;;5092512;28;20089;-82
2023/09/01 01:20:54;;;;;;;0.00;0.00;;;;;;;;;;5090955;28;20047;-81
2023/09/01 01:23:21;;;;;;;0.00;0.00;;;;;;;;;;5091106;28;20104;-81
2023/09/01 01:25:47;;;;;;;0.00;0.00;;;;;;;;;;5091035;28;20052;-81
2023/09/01 01:28:13;;;;;;;0.00;0.00;;;;;;;;;;5094085;28;20054;-81
2023/09/01 01:30:40;;;;;;;0.00;0.00;;;;;;;;;;5095003;28;20054;-81
2023/09/01 01:33:08;;;;;;;0.00;0.00;;;;;;;;;;5096728;28;20028;-81
2023/09/01 01:35:34;;;;;;;0.00;0.00;;;;;;;;;;5095264;28;20040;-83
2023/09/01 01:38:14;;;;;;;0.00;0.00;;;;;;;;;;5095161;28;20044;-81
2023/09/01 01:40:41;;;;;;;0.00;0.00;;;;;;;;;;5096488;28;20048;-87
2023/09/01 01:43:08;;;;;;;0.00;0.00;;;;;;;;;;5097052;28;20096;-83
2023/09/01 01:45:35;;;;;;;0.00;0.00;;;;;;;;;;5095861;28;20050;-90
2023/09/01 01:48:01;;;;;;;0.00;0.00;;;;;;;;;;5095376;28;20136;-82
2023/09/01 01:50:27;;;;;;;0.00;0.00;;;;;;;;;;5095146;28;20036;-82
2023/09/01 01:52:53;;;;;;;0.00;0.00;;;;;;;;;;5095944;28;20105;-81
2023/09/01 01:55:19;;;;;;;0.00;0.00;;;;;;;;;;5095215;28;20389;-81
2023/09/01 01:57:45;;;;;;;0.00;0.00;;;;;;;;;;5096194;28;20032;-81
2023/09/01 02:00:11;;;;;;;0.00;0.00;;;;;;;;;;5094921;28;20082;-82
2023/09/01 02:02:40;;;;;;;0.00;0.00;;;;;;;;;;5094676;28;20043;-81
2023/09/01 02:05:06;;;;;;;0.00;0.00;;;;;;;;;;5094819;28;20040;-81
2023/09/01 02:07:36;;;;;;;0.00;0.00;;;;;;;;;;5094561;28;20441;-83
2023/09/01 02:10:05;;;;;;;0.00;0.00;;;;;;;;;;5095948;28;20387;-81
2023/09/01 02:12:32;;;;;;;0.00;0.00;;;;;;;;;;5094463;28;20479;-79
2023/09/01 02:14:58;;;;;;;0.00;0.00;;;;;;;;;;5095705;28;20574;-81
2023/09/01 02:17:24;;;;;;;0.00;0.00;;;;;;;;;;5095705;28;20044;-81
2023/09/01 02:19:50;;;;;;;0.00;0.00;;;;;;;;;;5095630;28;20513;-81
2023/09/01 02:22:17;;;;;;;0.00;0.00;;;;;;;;;;5094266;28;20040;-81
2023/09/01 02:24:43;;;;;;;0.00;0.00;;;;;;;;;;5095694;28;20477;-81
2023/09/01 02:27:09;;;;;;;0.00;0.00;;;;;;;;;;5094211;28;20052;-81
2023/09/01 02:29:35;;;;;;;0.00;0.00;;;;;;;;;;5095745;28;20047;-80
2023/09/01 02:32:02;;;;;;;0.00;0.00;;;;;;;;;;5094133;28;20379;-80
2023/09/01 02:34:28;;;;;;;0.00;0.00;;;;;;;;;;5094350;28;20047;-81
2023/09/01 02:36:54;;;;;;;0.00;0.00;;;;;;;;;;5094003;28;20119;-80
2023/09/01 02:39:20;;;;;;;0.00;0.00;;;;;;;;;;5076701;28;20055;-80
2023/09/01 02:41:46;;;;;;;0.00;0.00;;;;;;;;;;5095357;28;20047;-80
2023/09/01 02:44:12;;;;;;;0.00;0.00;;;;;;;;;;5095490;28;20040;-80
2023/09/01 02:46:38;;;;;;;0.00;0.00;;;;;;;;;;5095129;28;20084;-80
2023/09/01 02:49:04;;;;;;;0.00;0.00;;;;;;;;;;5095261;28;20043;-79
2023/09/01 02:51:30;;;;;;;0.00;0.00;;;;;;;;;;5094384;28;20487;-81
2023/09/01 02:53:56;;;;;;;0.00;0.00;;;;;;;;;;5094570;28;20109;-80
2023/09/01 02:56:22;;;;;;;0.00;0.00;;;;;;;;;;5077445;28;20516;-80
2023/09/01 02:58:48;;;;;;;0.00;0.00;;;;;;;;;;5095439;28;20121;-80
2023/09/01 03:01:14;;;;;;;0.00;0.00;;;;;;;;;;5095074;28;20131;-80
2023/09/01 03:03:41;;;;;;;0.00;0.00;;;;;;;;;;5094687;28;20104;-80
2023/09/01 03:06:10;;;;;;;0.00;0.00;;;;;;;;;;5093878;28;20483;-80
2023/09/01 03:08:37;;;;;;;0.00;0.00;;;;;;;;;;5094776;28;20128;-80
2023/09/01 03:11:03;;;;;;;0.10;0.00;;;;;;;;;;5093448;28;20051;-80
2023/09/01 03:13:29;;;;;;;0.00;0.00;;;;;;;;;;5093475;28;20070;-80
2023/09/01 03:15:55;;;;;;;0.00;0.00;;;;;;;;;;5094521;28;20098;-81
2023/09/01 03:18:21;;;;;;;0.00;0.00;;;;;;;;;;5094419;28;20039;-80
2023/09/01 03:20:48;;;;;;;0.00;0.00;;;;;;;;;;5093442;28;20043;-81
2023/09/01 03:23:14;;;;;;;0.00;0.00;;;;;;;;;;5093121;28;20048;-80
2023/09/01 03:25:40;;;;;;;0.00;0.00;;;;;;;;;;5094682;28;20040;-80
2023/09/01 03:28:06;;;;;;;0.00;0.00;;;;;;;;;;5094294;28;20044;-80
2023/09/01 03:30:33;;;;;;;0.00;0.00;;;;;;;;;;5094274;28;20048;-80
2023/09/01 03:32:59;;;;;;;0.00;0.00;;;;;;;;;;5094149;28;20036;-80
2023/09/01 03:35:24;;;;;;;0.00;0.00;;;;;;;;;;5094500;28;20546;-80
2023/09/01 03:37:50;;;;;;;0.00;0.00;;;;;;;;;;5092945;28;20050;-80
2023/09/01 03:40:17;;;;;;;0.00;0.00;;;;;;;;;;5092761;28;20552;-79
2023/09/01 03:42:43;;;;;;;0.00;0.00;;;;;;;;;;5092943;28;20071;-80
2023/09/01 03:45:09;;;;;;;0.00;0.00;;;;;;;;;;5093004;28;20076;-80
2023/09/01 03:47:35;;;;;;;0.00;0.00;;;;;;;;;;5092463;28;20112;-80
2023/09/01 03:50:01;;;;;;;0.00;0.00;;;;;;;;;;5074750;28;20078;-80
2023/09/01 03:52:27;;;;;;;0.00;0.00;;;;;;;;;;5093615;28;20158;-80
2023/09/01 03:54:53;;;;;;;0.00;0.00;;;;;;;;;;5092700;28;20118;-81
2023/09/01 03:57:19;;;;;;;0.00;0.00;;;;;;;;;;5092670;28;20403;-80
2023/09/01 03:59:47;;;;;;;0.00;0.00;;;;;;;;;;5093820;28;20040;-80
2023/09/01 04:02:13;;;;;;;0.00;0.00;;;;;;;;;;5092463;28;20391;-80
2023/09/01 04:04:39;;;;;;;0.00;0.00;;;;;;;;;;5092367;28;20510;-80
2023/09/01 04:07:06;;;;;;;0.00;0.00;;;;;;;;;;5093706;28;20136;-80
2023/09/01 04:09:32;;;;;;;0.00;0.00;;;;;;;;;;5092506;28;20115;-80
2023/09/01 04:11:58;;;;;;;0.00;0.00;;;;;;;;;;5093729;28;20123;-80
2023/09/01 04:14:24;;;;;;;0.00;0.00;;;;;;;;;;5091938;28;20036;-80
2023/09/01 04:16:50;;;;;;;0.00;0.00;;;;;;;;;;5094019;28;20055;-80
2023/09/01 04:19:16;;;;;;;0.00;0.00;;;;;;;;;;5091915;28;20040;-80
2023/09/01 04:21:42;;;;;;;0.00;0.00;;;;;;;;;;5093688;28;20035;-80
2023/09/01 04:24:08;;;;;;;0.00;0.00;;;;;;;;;;5092075;28;20036;-80
2023/09/01 04:26:34;;;;;;;0.00;0.00;;;;;;;;;;5093496;28;20043;-80
2023/09/01 04:29:00;;;;;;;0.00;0.00;;;;;;;;;;5093028;28;20435;-80
2023/09/01 04:31:32;;;;;;;0.00;0.00;;;;;;;;;;5091922;28;20115;-84
2023/09/01 04:33:58;;;;;;;0.00;0.00;;;;;;;;;;5093161;28;20040;-80
2023/09/01 04:36:24;;;;;;;0.00;0.00;;;;;;;;;;5092260;28;20071;-80
2023/09/01 04:38:50;;;;;;;0.00;0.00;;;;;;;;;;5091865;28;20085;-80
2023/09/01 04:41:16;;;;;;;0.00;0.00;;;;;;;;;;5093204;28;20123;-80
2023/09/01 04:43:43;;;;;;;0.00;0.00;;;;;;;;;;5092820;28;20083;-80
2023/09/01 04:46:09;;;;;;;0.00;0.00;;;;;;;;;;5093275;28;20185;-80
2023/09/01 04:48:35;;;;;;;0.00;0.00;;;;;;;;;;5093141;28;20080;-80
2023/09/01 04:51:02;;;;;;;0.28;0.13;;;;;;;;;;5093335;28;20067;-80
2023/09/01 04:53:28;;;;;;;0.00;0.00;;;;;;;;;;5092750;28;20036;-80
2023/09/01 04:55:55;;;;;;;0.00;0.00;;;;;;;;;;5091684;28;20542;-80
2023/09/01 04:58:21;;;;;;;0.10;0.00;;;;;;;;;;5091318;28;20523;-80
2023/09/01 05:00:47;;;;;;;0.00;0.00;;;;;;;;;;5091400;28;20044;-80
2023/09/01 05:03:13;;;;;;;0.00;0.00;;;;;;;;;;5091345;28;20076;-80
2023/09/01 05:05:40;;;;;;;0.00;0.00;;;;;;;;;;5091517;28;20083;-80
2023/09/01 05:08:06;;;;;;;0.00;0.00;;;;;;;;;;5091584;28;20430;-80
2023/09/01 05:10:32;;;;;;;0.00;0.00;;;;;;;;;;5092492;28;20085;-81
2023/09/01 05:12:58;;;;;;;0.00;0.00;;;;;;;;;;5092652;28;20035;-80
2023/09/01 05:15:24;;;;;;;0.00;0.00;;;;;;;;;;5092672;28;20109;-80
2023/09/01 05:17:50;;;;;;;0.00;0.00;;;;;;;;;;5091588;28;20075;-80
2023/09/01 05:20:16;;;;;;;0.00;0.00;;;;;;;;;;5092707;28;20544;-80
2023/09/01 05:22:42;;;;;;;0.00;0.00;;;;;;;;;;5092646;28;20036;-80
2023/09/01 05:25:08;;;;;;;0.00;0.00;;;;;;;;;;5092479;28;20036;-82
2023/09/01 05:27:34;;;;;;;0.00;0.00;;;;;;;;;;5091220;28;20048;-82
2023/09/01 05:30:00;;;;;;;0.00;0.00;;;;;;;;;;5092327;28;20051;-82
2023/09/01 05:32:26;;;;;;;0.00;0.00;;;;;;;;;;5091423;28;20043;-82
2023/09/01 05:34:52;;;;;;;0.00;0.00;;;;;;;;;;5092154;28;20036;-82
2023/09/01 05:37:18;;;;;;;0.00;0.00;;;;;;;;;;5091362;28;20051;-82
2023/09/01 05:39:44;;;;;;;0.00;0.00;;;;;;;;;;5092331;28;20533;-83
2023/09/01 05:42:10;;;;;;;0.00;0.00;;;;;;;;;;5092794;28;20070;-83
2023/09/01 05:44:37;;;;;;;0.00;0.00;;;;;;;;;;5074390;28;20139;-81
2023/09/01 05:47:03;;;;;;;0.00;0.00;;;;;;;;;;5091080;28;20054;-81
2023/09/01 05:49:33;;;;;;;0.00;0.00;;;;;;;;;;5090991;28;20443;-81
2023/09/01 05:52:00;;;;;;;0.00;0.00;;;;;;;;;;5091282;28;20082;-82
2023/09/01 05:54:26;;;;;;;0.00;0.00;;;;;;;;;;5090840;28;20040;-81
2023/09/01 05:56:52;;;;;;;0.00;0.00;;;;;;;;;;5091159;28;20393;-82
2023/09/01 05:59:18;;;;;;;0.00;0.00;;;;;;;;;;5090911;28;20047;-82
2023/09/01 06:01:44;;;;;;;0.00;0.00;;;;;;;;;;5091290;28;20040;-82
2023/09/01 06:04:10;;;;;;;0.00;0.00;;;;;;;;;;5090905;28;20036;-82
2023/09/01 06:06:36;;;;;;;0.00;0.00;;;;;;;;;;5091114;28;20088;-81
2023/09/01 06:09:07;;;;;;;0.00;0.00;;;;;;;;;;5091071;28;20040;-88
2023/09/01 06:11:34;;;;;;;0.00;0.00;;;;;;;;;;5091146;28;20090;-82
2023/09/01 06:14:01;;;;;;;0.00;0.00;;;;;;;;;;5093441;28;20048;-81
2023/09/01 06:16:27;;;;;;;0.00;0.00;;;;;;;;;;5094564;28;20055;-81
2023/09/01 06:18:54;;;;;;;0.00;0.00;;;;;;;;;;5077805;28;20055;-81
2023/09/01 06:21:20;;;;;;;0.00;0.00;;;;;;;;;;5096083;28;20046;-81
2023/09/01 06:23:46;;;;;;;0.00;0.00;;;;;;;;;;5095689;28;20046;-81
2023/09/01 06:26:19;;;;;;;0.00;0.00;;;;;;;;;;5097532;28;20079;-81
2023/09/01 06:28:45;;;;;;;0.00;0.00;;;;;;;;;;5095751;28;20123;-82
2023/09/01 06:31:13;;;;;;;0.00;0.00;;;;;;;;;;5094563;28;20210;-82
2023/09/01 06:33:42;;;;;;;0.00;0.00;;;;;;;;;;5094058;28;20115;-82
2023/09/01 06:36:09;;;;;;;0.00;0.00;;;;;;;;;;5094403;28;20567;-82
2023/09/01 06:38:35;;;;;;;0.00;0.00;;;;;;;;;;5094649;28;20036;-82
2023/09/01 06:41:03;;;;;;;0.00;0.00;;;;;;;;;;5094022;28;20138;-82
2023/09/01 06:43:29;;;;;;;0.00;0.00;;;;;;;;;;5094286;28;20036;-82
2023/09/01 06:45:55;;;;;;;0.00;0.00;;;;;;;;;;5094054;28;20040;-82
2023/09/01 06:48:21;;;;;;;0.00;0.00;;;;;;;;;;5095546;28;20120;-83
2023/09/01 06:50:47;;;;;;;0.00;0.00;;;;;;;;;;5093778;28;20193;-82
2023/09/01 06:53:13;;;;;;;0.00;0.00;;;;;;;;;;5095499;28;20028;-83
2023/09/01 06:55:39;;;;;;;0.00;0.00;;;;;;;;;;5076823;28;20051;-83
2023/09/01 06:58:05;;;;;;;0.00;0.00;;;;;;;;;;5094033;28;20063;-82
2023/09/01 07:00:32;;;;;;;0.00;0.00;;;;;;;;;;5094712;28;20040;-85
2023/09/01 07:02:58;;;;;;;0.00;0.00;;;;;;;;;;5093944;28;20078;-83
2023/09/01 07:05:24;;;;;;;0.00;0.00;;;;;;;;;;5094896;28;20047;-84
2023/09/01 07:07:50;;;;;;;0.00;0.00;;;;;;;;;;5093817;28;20043;-83
2023/09/01 07:10:16;;;;;;;0.00;0.00;;;;;;;;;;5094718;28;20445;-83
2023/09/01 07:12:44;;;;;;;0.00;0.00;;;;;;;;;;5094115;28;20382;-84
2023/09/01 07:15:11;;;;;;;0.00;0.00;;;;;;;;;;5093423;28;20483;-83
2023/09/01 07:17:37;;;;;;;0.00;0.00;;;;;;;;;;5093552;28;20044;-83
2023/09/01 07:20:04;;;;;;;0.00;0.00;;;;;;;;;;5094811;28;20043;-83
2023/09/01 07:22:30;;;;;;;0.00;0.00;;;;;;;;;;5093563;28;20048;-83
2023/09/01 07:24:56;;;;;;;0.00;0.00;;;;;;;;;;5093080;28;20044;-83
2023/09/01 07:27:22;;;;;;;0.00;0.00;;;;;;;;;;5093656;28;20071;-83
2023/09/01 07:29:48;;;;;;;0.00;0.00;;;;;;;;;;5094451;28;20082;-83
2023/09/01 07:32:18;;;;;;;0.00;0.00;;;;;;;;;;5093554;28;20043;-83
2023/09/01 07:34:46;;;;;;;0.00;0.00;;;;;;;;;;5093171;28;20394;-83
2023/09/01 07:37:12;;;;;;;0.00;0.00;;;;;;;;;;5076500;28;20040;-83
2023/09/01 07:39:39;;;;;;;0.00;0.00;;;;;;;;;;5094349;28;20043;-82
2023/09/01 07:42:05;;;;;;;0.00;0.00;;;;;;;;;;5093445;28;20123;-82
2023/09/01 07:44:31;;;;;;;0.00;0.00;;;;;;;;;;5094397;28;20036;-83
2023/09/01 07:46:57;;;;;;;0.00;0.00;;;;;;;;;;5092783;28;20098;-83
2023/09/01 07:49:23;;;;;;;0.00;0.00;;;;;;;;;;5092874;28;20075;-83
2023/09/01 07:51:49;;;;;;;0.00;0.00;;;;;;;;;;5094777;28;20392;-83
2023/09/01 07:54:15;;;;;;;0.00;0.00;;;;;;;;;;5093414;28;20040;-83
2023/09/01 07:56:41;;;;;;;0.00;0.00;;;;;;;;;;5093442;28;20045;-83
2023/09/01 07:59:07;;;;;;;0.00;0.00;;;;;;;;;;5093538;28;20036;-83
2023/09/01 08:01:33;;;;;;;0.00;0.00;;;;;;;;;;5092673;28;20502;-84
2023/09/01 08:03:59;;;;;;;0.00;0.00;;;;;;;;;;5093048;28;20066;-83
2023/09/01 08:06:31;;;;;;;0.00;0.00;;;;;;;;;;5075779;28;20069;-83
2023/09/01 08:08:57;;;;;;;0.00;0.00;;;;;;;;;;5075888;28;20036;-83
2023/09/01 08:11:23;;;;;;;0.00;0.00;;;;;;;;;;5092690;28;20380;-83
2023/09/01 08:13:49;;;;;;;0.00;0.00;;;;;;;;;;5092988;28;20475;-83
2023/09/01 08:16:17;;;;;;;0.00;0.00;;;;;;;;;;5092370;28;20052;-83
2023/09/01 08:18:43;;;;;;;0.00;0.00;;;;;;;;;;5094385;28;20127;-83
2023/09/01 08:21:09;;;;;;;0.00;0.00;;;;;;;;;;5092475;28;20078;-82
2023/09/01 08:23:36;;;;;;;0.00;0.00;;;;;;;;;;5094300;28;20471;-83
2023/09/01 08:26:05;;;;;;;0.00;0.00;;;;;;;;;;5093888;28;20176;-83
2023/09/01 08:28:31;;;;;;;0.00;0.00;;;;;;;;;;5092685;28;20039;-83
2023/09/01 08:31:01;;;;;;;0.00;0.00;;;;;;;;;;5092316;28;20072;-83
2023/09/01 08:33:27;;;;;;;0.00;0.00;;;;;;;;;;5093937;28;20036;-82
2023/09/01 08:35:53;;;;;;;0.00;0.00;;;;;;;;;;5091797;28;20125;-83
2023/09/01 08:38:19;;;;;;;0.00;0.00;;;;;;;;;;5092707;28;20149;-83
2023/09/01 08:40:48;;;;;;;0.00;0.00;;;;;;;;;;5093655;28;20441;-83
2023/09/01 08:43:15;;;;;;;0.00;0.00;;;;;;;;;;5093624;28;20044;-83
2023/09/01 08:45:41;;;;;;;0.00;0.00;;;;;;;;;;5093406;28;20043;-83
2023/09/01 08:48:08;;;;;;;0.00;0.00;;;;;;;;;;5093660;28;20048;-83
2023/09/01 08:50:34;;;;;;;0.00;0.00;;;;;;;;;;5092077;28;20087;-83
2023/09/01 08:53:03;;;;;;;0.00;0.00;;;;;;;;;;5093737;28;20055;-83
2023/09/01 08:55:30;;;;;;;0.00;0.00;;;;;;;;;;5075260;28;20040;-83
2023/09/01 08:57:56;;;;;;;0.00;0.00;;;;;;;;;;5092464;28;20089;-83
2023/09/01 09:00:22;;;;;;;0.00;0.00;;;;;;;;;;5092264;28;20127;-84
2023/09/01 09:02:48;;;;;;;0.00;0.00;;;;;;;;;;5094152;28;20471;-83
2023/09/01 09:05:14;;;;;;;0.00;0.00;;;;;;;;;;5091638;28;20046;-83
2023/09/01 09:07:41;;;;;;;0.00;0.00;;;;;;;;;;5092321;28;20040;-83
2023/09/01 09:10:07;;;;;;;0.00;0.00;;;;;;;;;;5091760;28;20040;-83
2023/09/01 09:12:41;;;;;;;0.00;0.00;;;;;;;;;;5091464;28;20036;-83
2023/09/01 09:15:07;;;;;;;0.00;0.00;;;;;;;;;;5091653;28;20056;-83
2023/09/01 09:17:48;;;;;;;0.00;0.00;;;;;;;;;;5091749;28;20039;-83
2023/09/01 09:20:18;;;;;;;0.00;0.00;;;;;;;;;;5092768;28;20054;-83
2023/09/01 09:22:50;;;;;;;0.00;0.00;;;;;;;;;;5092973;28;20044;-83
2023/09/01 09:25:29;;;;;;;0.00;0.00;;;;;;;;;;5091426;28;20048;-83
2023/09/01 09:27:59;;;;;;;0.00;0.00;;;;;;;;;;5091534;28;20395;-83
2023/09/01 09:30:28;;;;;;;0.00;0.00;;;;;;;;;;5091942;28;20090;-82
2023/09/01 09:33:04;;;;;;;0.00;0.00;;;;;;;;;;5095365;28;20410;-87
2023/09/01 09:35:31;;;;;;;0.00;0.00;;;;;;;;;;5091057;28;20093;-82
2023/09/01 09:37:58;;;;;;;0.00;0.00;;;;;;;;;;5092503;28;20044;-82
2023/09/01 09:40:24;;;;;;;0.00;0.00;;;;;;;;;;5092425;28;20040;-82
2023/09/01 09:42:50;;;;;;;0.00;0.00;;;;;;;;;;5092585;28;20083;-82
2023/09/01 09:45:26;;;;;;;0.00;0.00;;;;;;;;;;5091421;28;20486;-82
2023/09/01 09:47:53;;;;;;;0.00;0.00;;;;;;;;;;5091790;28;20052;-82
2023/09/01 09:50:20;;;;;;;0.00;0.00;;;;;;;;;;5095165;28;20048;-82
2023/09/01 09:52:49;;;;;;;0.00;0.00;;;;;;;;;;5095360;28;20076;-82
2023/09/01 09:55:17;;;;;;;0.00;0.00;;;;;;;;;;5078218;28;20476;-83
2023/09/01 09:57:44;;;;;;;0.00;0.00;;;;;;;;;;5095091;28;20119;-82
2023/09/01 10:00:10;;;;;;;0.00;0.00;;;;;;;;;;5096299;28;20069;-82
2023/09/01 10:02:42;;;;;;;0.00;0.00;;;;;;;;;;5096169;28;20498;-82
2023/09/01 10:05:11;;;;;;;0.00;0.00;;;;;;;;;;5096269;28;20044;-82
2023/09/01 10:07:37;;;;;;;0.00;0.00;;;;;;;;;;5095924;28;20044;-82
2023/09/01 10:10:03;;;;;;;0.00;0.00;;;;;;;;;;5077965;28;20123;-82
2023/09/01 10:12:29;;;;;;;0.00;0.00;;;;;;;;;;5094621;28;20051;-82
2023/09/01 10:14:56;;;;;;;0.00;0.00;;;;;;;;;;5095889;28;20131;-82
2023/09/01 10:17:22;;;;;;;0.00;0.00;;;;;;;;;;5094518;28;20052;-82
2023/09/01 10:19:48;;;;;;;0.00;0.00;;;;;;;;;;5094580;28;20048;-82
2023/09/01 10:22:18;;;;;;;0.00;0.00;;;;;;;;;;5094491;28;20495;-83
2023/09/01 10:25:02;;;;;;;0.00;0.00;;;;;;;;;;5094890;28;20054;-83
2023/09/01 10:27:28;;;;;;;0.00;0.00;;;;;;;;;;5094288;28;20059;-83
2023/09/01 10:29:54;;;;;;;0.00;0.00;;;;;;;;;;5094429;28;20479;-83
2023/09/01 10:32:20;;;;;;;0.00;0.00;;;;;;;;;;5095617;28;20046;-83
2023/09/01 10:34:53;;;;;;;0.00;0.00;;;;;;;;;;5094157;28;20043;-83
2023/09/01 10:37:23;;;;;;;0.00;0.00;;;;;;;;;;5094144;28;20040;-83
2023/09/01 10:39:49;;;;;;;0.00;0.00;;;;;;;;;;5095376;28;20036;-82
2023/09/01 10:42:15;;;;;;;0.00;0.00;;;;;;;;;;5095271;28;20098;-83
2023/09/01 10:44:44;;;;;;;0.00;0.00;;;;;;;;;;5094484;28;20076;-83
2023/09/01 10:47:29;;;;;;;0.00;0.00;;;;;;;;;;5094223;28;20066;-82
2023/09/01 10:49:58;;;;;;;0.00;0.00;;;;;;;;;;5094298;28;20040;-82
2023/09/01 10:52:26;;;;;;;0.00;0.00;;;;;;;;;;5094180;28;20147;-82
2023/09/01 10:55:05;;;;;;;0.00;0.00;;;;;;;;;;5077432;28;20032;-82
2023/09/01 10:57:41;;;;;;;0.00;0.00;;;;;;;;;;5094007;28;20048;-82
2023/09/01 11:00:26;;;;;;;0.00;0.00;;;;;;;;;;5094639;28;20044;-82
2023/09/01 11:02:52;;;;;;;0.00;0.00;;;;;;;;;;5094690;28;20040;-81
2023/09/01 11:05:36;;;;;;;0.00;0.00;;;;;;;;;;5094884;28;20047;-82
2023/09/01 11:08:12;;;;;;;0.00;0.00;;;;;;;;;;5093418;28;20067;-82
2023/09/01 11:10:38;;;;;;;0.00;0.00;;;;;;;;;;5093350;28;20040;-82
2023/09/01 11:13:19;;;;;;;0.00;0.00;;;;;;;;;;5093276;28;20036;-82
2023/09/01 11:15:50;;;;;;;0.00;0.00;;;;;;;;;;5093513;28;20364;-82
2023/09/01 11:18:19;;;;;;;0.00;0.00;;;;;;;;;;5094589;28;20036;-82
2023/09/01 11:20:49;;;;;;;0.00;0.00;;;;;;;;;;5094409;28;20082;-83
2023/09/01 11:23:24;;;;;;;0.00;0.00;;;;;;;;;;5094390;28;20040;-82
2023/09/01 11:25:56;;;;;;;0.00;0.00;;;;;;;;;;5094506;28;20040;-82
2023/09/01 11:28:23;;;;;;;0.00;0.00;;;;;;;;;;5094512;28;20115;-82
2023/09/01 11:30:55;;;;;;;0.00;0.00;;;;;;;;;;5094510;28;20040;-82
2023/09/01 11:33:22;;;;;;;0.00;0.00;;;;;;;;;;5092860;28;20040;-82
2023/09/01 11:35:48;;;;;;;0.00;0.00;;;;;;;;;;5093191;28;20047;-83
2023/09/01 11:38:19;;;;;;;0.00;0.00;;;;;;;;;;5093837;28;20047;-83
2023/09/01 11:40:45;;;;;;;0.00;0.00;;;;;;;;;;5093241;28;20043;-82
2023/09/01 11:43:12;;;;;;;0.40;0.22;;;;;;;;;;5075901;28;20502;-82
2023/09/01 11:45:45;;;;;;;0.00;0.00;;;;;;;;;;5093221;28;20503;-82
2023/09/01 11:48:11;;;;;;;0.00;0.00;;;;;;;;;;5094001;28;20050;-83
2023/09/01 11:50:43;;;;;;;0.00;0.00;;;;;;;;;;5094009;28;20044;-82
2023/09/01 11:53:09;;;;;;;0.00;0.00;;;;;;;;;;5093084;28;20055;-82
2023/09/01 11:55:38;;;;;;;0.00;0.00;;;;;;;;;;5094083;28;20493;-82
2023/09/01 11:58:04;;;;;;;0.00;0.00;;;;;;;;;;5092746;28;20057;-82
2023/09/01 12:00:34;;;;;;;0.00;0.00;;;;;;;;;;5093765;28;20043;-82
2023/09/01 12:03:03;;;;;;;0.00;0.00;;;;;;;;;;5093715;28;20138;-83
2023/09/01 12:05:39;;;;;;;0.00;0.00;;;;;;;;;;5092833;28;20093;-82
2023/09/01 12:08:07;;;;;;;0.00;0.00;;;;;;;;;;5092689;28;20141;-82
2023/09/01 12:10:33;;;;;;;0.00;0.00;;;;;;;;;;5091747;28;20040;-83
2023/09/01 12:13:07;;;;;;;0.00;0.00;;;;;;;;;;5092447;28;20071;-82
2023/09/01 12:15:33;;;;;;;0.00;0.00;;;;;;;;;;5092228;28;20044;-82
2023/09/01 12:18:19;;;;;;;0.00;0.00;;;;;;;;;;5092026;28;20513;-83
2023/09/01 12:20:45;;;;;;;0.00;0.00;;;;;;;;;;5092523;28;20372;-82
2023/09/01 12:23:11;;;;;;;0.00;0.00;;;;;;;;;;5092476;28;20063;-83
2023/09/01 12:25:37;;;;;;;0.00;0.00;;;;;;;;;;5093952;28;20129;-82
2023/09/01 12:28:03;;;;;;;0.00;0.00;;;;;;;;;;5075804;28;20058;-83
2023/09/01 12:30:29;;;;;;;0.00;0.00;;;;;;;;;;5093478;28;20139;-82
2023/09/01 12:32:55;;;;;;;0.05;0.03;;;;;;;;;;5075181;28;20112;-83
2023/09/01 12:35:21;;;;;;;0.00;0.00;;;;;;;;;;5093479;28;20044;-82
2023/09/01 12:37:47;;;;;;;0.00;0.00;;;;;;;;;;5093428;28;20489;-82
2023/09/01 12:40:12;;;;;;;0.00;0.00;;;;;;;;;;5092321;28;20054;-83
2023/09/01 12:42:38;;;;;;;0.00;0.00;;;;;;;;;;5092523;28;20043;-83
2023/09/01 12:45:05;;;;;;;0.00;0.00;;;;;;;;;;5092299;28;20105;-83
2023/09/01 12:47:31;;;;;;;0.00;0.00;;;;;;;;;;5093376;28;20351;-83
2023/09/01 12:49:57;;;;;;;0.00;0.00;;;;;;;;;;5093348;28;20036;-83
2023/09/01 12:52:23;;;;;;;0.00;0.00;;;;;;;;;;5092926;28;20491;-82
2023/09/01 12:54:49;;;;;;;0.00;0.00;;;;;;;;;;5093163;28;20046;-82
2023/09/01 12:57:15;;;;;;;0.00;0.00;;;;;;;;;;5093240;28;20502;-83
2023/09/01 12:59:41;;;;;;;0.00;0.00;;;;;;;;;;5093016;28;20036;-82
2023/09/01 13:02:07;;;;;;;0.00;0.00;;;;;;;;;;5091867;28;20047;-82
2023/09/01 13:04:34;;;;;;;0.00;0.00;;;;;;;;;;5092788;28;20105;-83
2023/09/01 13:07:00;;;;;;;0.00;0.00;;;;;;;;;;5093087;28;20052;-83
2023/09/01 13:09:26;;;;;;;0.00;0.00;;;;;;;;;;5091472;28;20505;-83
2023/09/01 13:11:52;;;;;;;0.00;0.00;;;;;;;;;;5091517;28;20040;-83
2023/09/01 13:14:18;;;;;;;0.00;0.00;;;;;;;;;;5092333;28;20040;-83
2023/09/01 13:16:44;;;;;;;0.00;0.00;;;;;;;;;;5091699;28;20147;-85
2023/09/01 13:19:10;;;;;;;0.00;0.00;;;;;;;;;;5092741;28;20054;-83
2023/09/01 13:21:36;;;;;;;0.00;0.00;;;;;;;;;;5091867;28;20047;-84
2023/09/01 13:24:01;;;;;;;0.00;0.00;;;;;;;;;;5098230;28;20065;-84
2023/09/01 13:26:27;;;;;;;0.00;0.00;;;;;;;;;;5081322;28;20475;-84
2023/09/01 13:28:53;;;;;;;0.00;0.00;;;;;;;;;;5098025;28;20257;-83
2023/09/01 13:31:19;;;;;;;0.00;0.00;;;;;;;;;;5097971;28;20484;-83
2023/09/01 13:33:45;;;;;;;0.00;0.00;;;;;;;;;;5097800;28;20039;-84
2023/09/01 13:36:11;;;;;;;0.00;0.00;;;;;;;;;;5098467;28;20043;-84
2023/09/01 13:38:38;;;;;;;0.00;0.00;;;;;;;;;;5097752;28;20040;-83
2023/09/01 13:41:04;;;;;;;0.00;0.00;;;;;;;;;;5097939;28;20092;-84
2023/09/01 13:43:30;;;;;;;0.00;0.00;;;;;;;;;;5097826;28;20148;-84
2023/09/01 13:45:56;;;;;;;0.00;0.00;;;;;;;;;;5098020;28;20460;-83
2023/09/01 13:48:22;;;;;;;0.00;0.00;;;;;;;;;;5099109;28;20032;-83
2023/09/01 13:50:48;;;;;;;0.00;0.00;;;;;;;;;;5097593;28;20040;-83
2023/09/01 13:53:14;;;;;;;0.00;0.00;;;;;;;;;;5080648;28;20043;-83
2023/09/01 13:55:40;;;;;;;0.00;0.00;;;;;;;;;;5081010;28;20743;-83
2023/09/01 13:58:06;;;;;;;0.00;0.00;;;;;;;;;;5099124;28;20036;-83
2023/09/01 14:00:32;;;;;;;0.00;0.00;;;;;;;;;;5099087;28;20043;-85
2023/09/01 14:02:58;;;;;;;0.00;0.00;;;;;;;;;;5097758;28;20040;-84
2023/09/01 14:05:24;;;;;;;0.00;0.00;;;;;;;;;;5098828;28;20071;-84
2023/09/01 14:07:50;;;;;;;0.00;0.00;;;;;;;;;;5098846;28;20047;-83
2023/09/01 14:10:16;;;;;;;0.00;0.00;;;;;;;;;;5097225;28;20044;-84
2023/09/01 14:12:42;;;;;;;0.00;0.00;;;;;;;;;;5097748;28;20387;-84
2023/09/01 14:15:08;;;;;;;0.00;0.00;;;;;;;;;;5097292;28;20048;-84
2023/09/01 14:17:34;;;;;;;0.00;0.00;;;;;;;;;;5097446;28;20381;-85
2023/09/01 14:20:00;;;;;;;0.00;0.00;;;;;;;;;;5097169;28;20209;-84
2023/09/01 14:22:26;;;;;;;0.00;0.00;;;;;;;;;;5097597;28;20387;-84
2023/09/01 14:24:52;;;;;;;0.00;0.00;;;;;;;;;;5097006;28;20121;-84
2023/09/01 14:27:18;;;;;;;0.00;0.00;;;;;;;;;;5097378;28;20044;-84
2023/09/01 14:29:45;;;;;;;0.00;0.00;;;;;;;;;;5097188;28;20043;-83
2023/09/01 14:32:11;;;;;;;0.00;0.00;;;;;;;;;;5097602;28;20457;-83
2023/09/01 14:34:37;;;;;;;0.00;0.00;;;;;;;;;;5095434;28;20040;-84
2023/09/01 14:37:03;;;;;;;0.00;0.00;;;;;;;;;;5095502;28;20032;-83
2023/09/01 14:39:29;;;;;;;0.00;0.00;;;;;;;;;;5095073;28;20067;-83
2023/09/01 14:41:55;;;;;;;0.00;0.00;;;;;;;;;;5094174;28;20356;-83